createdAt,value
2019-03-05T06:53:29.601Z,57.87
2019-03-05T06:54:29.568Z,57.64
2019-03-05T06:55:29.607Z,57.63
2019-03-05T06:56:29.581Z,57.59
2019-03-05T06:57:29.593Z,57.17
2019-03-05T06:58:29.626Z,56.92
2019-03-05T06:59:29.578Z,57.20
2019-03-05T07:00:29.623Z,56.96
2019-03-05T07:01:29.637Z,57.11
2019-03-05T07:02:29.617Z,57.24
2019-03-05T07:03:29.439Z,57.84
2019-03-05T07:04:29.451Z,57.52
2019-03-05T07:05:29.446Z,56.49
2019-03-05T07:06:29.464Z,55.36
2019-03-05T07:07:29.470Z,54.03
2019-03-05T07:08:29.458Z,51.90
2019-03-05T07:09:29.497Z,49.60
2019-03-05T07:10:29.488Z,49.23
2019-03-05T07:11:29.469Z,47.69
2019-03-05T07:12:29.695Z,46.30
2019-03-05T07:13:29.485Z,47.48
2019-03-05T07:14:29.552Z,46.86
2019-03-05T07:15:29.531Z,44.67
2019-03-05T07:16:29.524Z,45.36
2019-03-05T07:17:29.595Z,45.15
2019-03-05T07:18:29.580Z,44.95
2019-03-05T07:19:29.529Z,45.38
2019-03-05T07:20:29.530Z,45.73
2019-03-05T07:21:29.571Z,45.59
2019-03-05T07:22:29.561Z,44.86
2019-03-05T07:23:29.618Z,43.60
2019-03-05T07:24:29.633Z,42.10
2019-03-05T07:25:29.598Z,41.07
2019-03-05T07:26:29.585Z,40.27
2019-03-05T07:27:29.606Z,40.60
2019-03-05T07:28:29.620Z,40.26
2019-03-05T07:29:29.642Z,37.85
2019-03-05T07:30:29.649Z,37.62
2019-03-05T07:31:29.638Z,37.61
2019-03-05T07:32:29.623Z,37.47
2019-03-05T07:33:29.645Z,37.77
2019-03-05T07:34:29.463Z,37.98
2019-03-05T07:35:29.475Z,39.68
2019-03-05T07:36:29.487Z,41.65
2019-03-05T07:37:29.491Z,41.92
2019-03-05T07:38:29.474Z,40.17
2019-03-05T07:39:29.505Z,39.62
2019-03-05T07:40:29.494Z,38.76
2019-03-05T07:41:29.538Z,36.99
2019-03-05T07:42:29.524Z,34.76
2019-03-05T07:43:36.466Z,35.69
2019-03-05T07:44:29.486Z,35.93
2019-03-05T07:45:29.546Z,35.64
2019-03-05T07:46:29.560Z,36.17
2019-03-05T07:47:29.547Z,35.04
2019-03-05T07:48:29.744Z,34.42
2019-03-05T07:49:29.556Z,34.04
2019-03-05T07:50:29.582Z,33.68
2019-03-05T07:51:29.572Z,33.22
2019-03-05T07:52:29.583Z,33.01
2019-03-05T07:53:29.584Z,33.32
2019-03-05T07:54:29.603Z,33.00
2019-03-05T07:55:29.626Z,29.89
2019-03-05T07:56:29.636Z,28.89
2019-03-05T07:57:29.615Z,30.20
2019-03-05T07:58:29.655Z,28.71
2019-03-05T07:59:29.619Z,25.77
2019-03-05T08:00:29.667Z,27.86
2019-03-05T08:01:29.624Z,26.80
2019-03-05T08:02:29.656Z,25.96
2019-03-05T08:03:29.661Z,26.22
2019-03-05T08:04:29.452Z,26.12
2019-03-05T08:05:29.466Z,25.51
2019-03-05T08:06:29.492Z,26.26
2019-03-05T08:07:29.480Z,25.81
2019-03-05T08:08:29.491Z,25.99
2019-03-05T08:09:29.504Z,26.69
2019-03-05T08:10:29.527Z,27.96
2019-03-05T08:11:31.737Z,27.70
2019-03-05T08:12:29.547Z,27.70
2019-03-05T08:13:29.545Z,27.71
2019-03-05T08:14:29.563Z,28.11
2019-03-05T08:15:29.565Z,27.56
2019-03-05T08:16:29.585Z,27.27
2019-03-05T08:17:29.575Z,26.77
2019-03-05T08:18:29.584Z,27.11
2019-03-05T08:19:29.565Z,28.23
2019-03-05T08:20:29.556Z,27.40
2019-03-05T08:21:29.787Z,26.51
2019-03-05T08:22:29.636Z,27.33
2019-03-05T08:23:29.635Z,27.66
2019-03-05T08:24:29.584Z,27.66
2019-03-05T08:25:29.611Z,28.85
2019-03-05T08:26:29.610Z,27.86
2019-03-05T08:27:29.638Z,27.94
2019-03-05T08:28:29.664Z,28.61
2019-03-05T08:29:29.656Z,28.46
2019-03-05T08:30:29.681Z,27.23
2019-03-05T08:31:29.681Z,27.49
2019-03-05T08:32:29.662Z,28.36
2019-03-05T08:33:29.691Z,29.59
2019-03-05T08:34:29.739Z,27.82
2019-03-05T08:35:29.688Z,29.04
2019-03-05T08:36:29.513Z,29.08
2019-03-05T08:37:29.504Z,29.73
2019-03-05T08:38:29.508Z,28.80
2019-03-05T08:39:29.533Z,29.08
2019-03-05T08:40:29.526Z,28.89
2019-03-05T08:41:29.525Z,29.92
2019-03-05T08:42:29.546Z,28.92
2019-03-05T08:43:29.545Z,28.63
2019-03-05T08:44:29.531Z,28.37
2019-03-05T08:45:29.872Z,28.31
2019-03-05T08:46:29.596Z,28.16
2019-03-05T08:47:29.601Z,28.93
2019-03-05T08:48:29.598Z,29.25
2019-03-05T08:49:29.589Z,28.90
2019-03-05T08:50:29.592Z,27.78
2019-03-05T08:51:29.601Z,28.02
2019-03-05T08:52:29.739Z,28.18
2019-03-05T08:53:29.622Z,28.53
2019-03-05T08:54:29.632Z,28.50
2019-03-05T08:55:29.664Z,28.61
2019-03-05T08:56:29.644Z,28.92
2019-03-05T08:57:29.641Z,28.93
2019-03-05T08:58:29.688Z,29.29
2019-03-05T08:59:29.708Z,27.51
2019-03-05T09:00:29.687Z,28.55
2019-03-05T09:01:29.688Z,27.02
2019-03-05T09:02:29.665Z,28.25
2019-03-05T09:03:29.692Z,27.61
2019-03-05T09:04:29.745Z,27.41
2019-03-05T09:05:29.717Z,27.47
2019-03-05T09:06:29.538Z,27.38
2019-03-05T09:07:29.519Z,27.80
2019-03-05T09:08:29.516Z,28.83
2019-03-05T09:09:29.548Z,28.49
2019-03-05T09:10:29.566Z,27.37
2019-03-05T09:11:29.531Z,27.90
2019-03-05T09:12:29.539Z,27.62
2019-03-05T09:13:32.733Z,26.97
2019-03-05T09:14:29.540Z,27.70
2019-03-05T09:15:29.601Z,26.86
2019-03-05T09:16:29.636Z,25.81
2019-03-05T09:17:29.629Z,26.42
2019-03-05T09:18:29.604Z,26.23
2019-03-05T09:19:29.601Z,26.45
2019-03-05T09:20:29.606Z,26.04
2019-03-05T09:21:29.627Z,27.42
2019-03-05T09:22:29.681Z,26.54
2019-03-05T09:23:29.619Z,26.16
2019-03-05T09:24:29.679Z,26.11
2019-03-05T09:25:29.662Z,26.20
2019-03-05T09:26:29.678Z,26.14
2019-03-05T09:27:29.674Z,26.55
2019-03-05T09:28:29.673Z,26.40
2019-03-05T09:29:29.666Z,26.50
2019-03-05T09:30:29.691Z,26.82
2019-03-05T09:31:29.712Z,26.41
2019-03-05T09:32:29.675Z,26.08
2019-03-05T09:33:29.766Z,26.26
2019-03-05T09:34:29.747Z,26.47
2019-03-05T09:35:29.711Z,26.89
2019-03-05T09:36:29.717Z,26.57
2019-03-05T09:37:29.734Z,26.91
2019-03-05T09:38:29.544Z,26.21
2019-03-05T09:39:29.570Z,26.10
2019-03-05T09:40:29.560Z,25.90
2019-03-05T09:41:29.542Z,26.20
2019-03-05T09:42:39.551Z,26.18
2019-03-05T09:43:29.591Z,26.20
2019-03-05T09:44:29.564Z,26.23
2019-03-05T09:45:29.599Z,25.93
2019-03-05T09:46:29.612Z,25.56
2019-03-05T09:47:29.601Z,25.59
2019-03-05T09:48:29.631Z,25.67
2019-03-05T09:49:29.634Z,25.43
2019-03-05T09:50:32.013Z,24.87
2019-03-05T09:51:29.684Z,25.13
2019-03-05T09:52:29.644Z,25.34
2019-03-05T09:53:29.642Z,25.33
2019-03-05T09:54:29.674Z,25.17
2019-03-05T09:55:29.642Z,25.29
2019-03-05T09:56:29.685Z,25.40
2019-03-05T09:57:29.704Z,25.16
2019-03-05T09:58:29.702Z,25.52
2019-03-05T09:59:29.678Z,25.79
2019-03-05T10:00:29.701Z,25.24
2019-03-05T10:01:29.686Z,25.38
2019-03-05T10:02:29.703Z,25.38
2019-03-05T10:03:29.850Z,24.44
2019-03-05T10:04:29.753Z,25.80
2019-03-05T10:05:29.779Z,24.78
2019-03-05T10:06:29.751Z,25.51
2019-03-05T10:07:29.780Z,24.92
2019-03-05T10:08:32.709Z,25.25
2019-03-05T10:09:29.605Z,25.97
2019-03-05T10:10:29.582Z,25.44
2019-03-05T10:11:29.552Z,25.61
2019-03-05T10:12:30.275Z,25.55
2019-03-05T10:13:29.643Z,25.39
2019-03-05T10:14:29.603Z,25.51
2019-03-05T10:15:29.612Z,25.26
2019-03-05T10:16:29.614Z,25.13
2019-03-05T10:17:37.655Z,25.28
2019-03-05T10:18:29.628Z,25.91
2019-03-05T10:19:29.680Z,26.60
2019-03-05T10:20:29.643Z,26.58
2019-03-05T10:21:29.673Z,26.62
2019-03-05T10:22:29.666Z,26.71
2019-03-05T10:23:29.682Z,26.78
2019-03-05T10:24:29.701Z,26.66
2019-03-05T10:25:29.720Z,26.41
2019-03-05T10:26:29.675Z,26.15
2019-03-05T10:27:29.688Z,25.54
2019-03-05T10:28:29.725Z,24.15
2019-03-05T10:29:29.722Z,24.51
2019-03-05T10:30:29.736Z,24.05
2019-03-05T10:31:29.781Z,24.33
2019-03-05T10:32:29.707Z,23.68
2019-03-05T10:33:29.741Z,24.08
2019-03-05T10:34:29.757Z,22.93
2019-03-05T10:35:29.757Z,22.99
2019-03-05T10:36:29.762Z,22.76
2019-03-05T10:37:29.778Z,22.57
2019-03-05T10:38:29.797Z,22.32
2019-03-05T10:39:30.767Z,22.22
2019-03-05T10:40:29.582Z,23.00
2019-03-05T10:41:29.573Z,22.43
2019-03-05T10:42:31.868Z,22.47
2019-03-05T10:43:29.601Z,23.01
2019-03-05T10:44:29.606Z,23.56
2019-03-05T10:45:29.635Z,23.56
2019-03-05T10:46:29.655Z,23.02
2019-03-05T10:47:29.649Z,23.90
2019-03-05T10:48:30.493Z,23.60
2019-03-05T10:49:29.660Z,22.33
2019-03-05T10:50:29.641Z,21.21
2019-03-05T10:51:29.658Z,22.14
2019-03-05T10:52:29.732Z,21.98
2019-03-05T10:53:29.704Z,22.85
2019-03-05T10:54:29.713Z,24.11
2019-03-05T10:55:29.714Z,23.66
2019-03-05T10:56:29.689Z,22.68
2019-03-05T10:57:29.722Z,23.09
2019-03-05T10:58:33.756Z,23.33
2019-03-05T10:59:29.716Z,23.95
2019-03-05T11:00:29.766Z,24.01
2019-03-05T11:01:29.740Z,23.26
2019-03-05T11:02:29.729Z,24.19
2019-03-05T11:03:29.773Z,23.85
2019-03-05T11:04:29.867Z,24.80
2019-03-05T11:05:29.778Z,24.66
2019-03-05T11:06:29.770Z,24.92
2019-03-05T11:07:29.767Z,25.88
2019-03-05T11:08:29.775Z,25.46
2019-03-05T11:09:29.817Z,25.66
2019-03-05T11:10:29.841Z,27.38
2019-03-05T11:11:29.823Z,27.68
2019-03-05T11:12:29.608Z,28.30
2019-03-05T11:13:29.663Z,28.82
2019-03-05T11:14:29.618Z,29.28
2019-03-05T11:15:29.657Z,29.57
2019-03-05T11:16:31.066Z,30.17
2019-03-05T11:17:29.657Z,31.51
2019-03-05T11:18:37.310Z,32.14
2019-03-05T11:20:34.183Z,34.26
2019-03-05T11:21:34.183Z,35.48
2019-03-05T11:22:34.187Z,36.15
2019-03-05T11:23:34.193Z,37.09
2019-03-05T11:24:34.206Z,37.45
2019-03-05T11:25:34.223Z,37.19
2019-03-05T11:26:34.209Z,38.50
2019-03-05T11:27:34.270Z,41.45
2019-03-05T11:28:34.465Z,42.20
2019-03-05T11:29:34.224Z,44.73
2019-03-05T11:30:36.292Z,43.05
2019-03-05T11:31:34.066Z,44.34
2019-03-05T11:32:34.048Z,45.43
2019-03-05T11:33:34.124Z,43.34
2019-03-05T11:34:34.092Z,45.78
2019-03-05T11:35:34.082Z,48.98
2019-03-05T11:36:34.119Z,49.65
2019-03-05T11:37:34.158Z,46.74
2019-03-05T11:38:34.107Z,45.39
2019-03-05T11:39:34.124Z,42.08
2019-03-05T11:40:34.142Z,46.20
2019-03-05T11:41:34.129Z,47.78
2019-03-05T11:42:34.159Z,47.42
2019-03-05T11:43:34.190Z,46.25
2019-03-05T11:44:34.174Z,42.88
2019-03-05T11:45:34.185Z,34.80
2019-03-05T11:46:34.173Z,37.27
2019-03-05T11:47:34.167Z,37.05
2019-03-05T11:48:34.184Z,37.18
2019-03-05T11:49:34.226Z,36.01
2019-03-05T11:50:34.184Z,38.33
2019-03-05T11:51:34.225Z,37.66
2019-03-05T11:52:34.416Z,40.84
2019-03-05T11:53:34.202Z,33.56
2019-03-05T11:54:34.228Z,36.49
2019-03-05T11:55:34.242Z,35.31
2019-03-05T11:56:34.224Z,34.35
2019-03-05T11:57:34.241Z,33.57
2019-03-05T11:58:34.259Z,30.67
2019-03-05T11:59:34.271Z,28.08
2019-03-05T12:00:34.320Z,27.19
2019-03-05T12:01:34.054Z,28.24
2019-03-05T12:02:34.090Z,29.45
2019-03-05T12:03:34.089Z,29.40
2019-03-05T12:04:34.093Z,27.81
2019-03-05T12:05:34.118Z,30.04
2019-03-05T12:06:34.120Z,26.52
2019-03-05T12:07:34.103Z,30.19
2019-03-05T12:08:34.105Z,27.81
2019-03-05T12:09:34.145Z,26.77
2019-03-05T12:10:34.123Z,28.10
2019-03-05T12:11:34.146Z,26.30
2019-03-05T12:12:34.184Z,26.75
2019-03-05T12:13:34.169Z,27.06
2019-03-05T12:14:34.155Z,26.42
2019-03-05T12:15:34.191Z,24.33
2019-03-05T12:16:34.167Z,28.36
2019-03-05T12:17:34.194Z,25.12
2019-03-05T12:18:34.226Z,25.55
2019-03-05T12:19:34.229Z,28.59
2019-03-05T12:20:34.250Z,25.81
2019-03-05T12:21:34.221Z,26.79
2019-03-05T12:22:34.227Z,26.07
2019-03-05T12:23:34.237Z,27.60
2019-03-05T12:24:34.258Z,29.06
2019-03-05T12:25:36.162Z,23.97
2019-03-05T12:26:34.239Z,25.67
2019-03-05T12:27:35.894Z,25.18
2019-03-05T12:28:34.294Z,25.47
2019-03-05T12:29:34.306Z,24.28
2019-03-05T12:30:34.323Z,24.66
2019-03-05T12:31:34.312Z,22.76
2019-03-05T12:32:34.279Z,22.44
2019-03-05T12:33:34.300Z,22.83
2019-03-05T12:34:34.111Z,22.89
2019-03-05T12:35:35.472Z,23.30
2019-03-05T12:36:34.147Z,24.42
2019-03-05T12:37:34.132Z,24.50
2019-03-05T12:38:34.123Z,23.68
2019-03-05T12:39:34.138Z,22.77
2019-03-05T12:40:34.148Z,24.63
2019-03-05T12:41:34.161Z,22.96
2019-03-05T12:42:34.215Z,23.79
2019-03-05T12:43:34.197Z,24.76
2019-03-05T12:44:34.175Z,24.60
2019-03-05T12:45:34.179Z,23.23
2019-03-05T12:46:34.191Z,22.72
2019-03-05T12:47:34.203Z,23.48
2019-03-05T12:48:39.897Z,23.01
2019-03-05T12:49:34.240Z,22.95
2019-03-05T12:50:34.223Z,23.01
2019-03-05T12:51:34.231Z,22.24
2019-03-05T12:52:34.268Z,23.07
2019-03-05T12:53:34.261Z,22.60
2019-03-05T12:54:34.272Z,22.71
2019-03-05T12:55:34.276Z,23.25
2019-03-05T12:56:34.249Z,23.35
2019-03-05T12:57:34.280Z,22.67
2019-03-05T12:58:34.285Z,23.09
2019-03-05T12:59:34.286Z,22.94
2019-03-05T13:00:34.314Z,23.06
2019-03-05T13:01:35.039Z,23.46
2019-03-05T13:02:34.287Z,22.35
2019-03-05T13:03:34.319Z,22.76
2019-03-05T13:04:34.333Z,22.33
2019-03-05T13:05:34.413Z,22.48
2019-03-05T13:06:34.160Z,22.51
2019-03-05T13:07:34.125Z,22.50
2019-03-05T13:08:34.151Z,22.60
2019-03-05T13:09:34.164Z,22.28
2019-03-05T13:10:36.095Z,22.40
2019-03-05T13:11:34.402Z,22.53
2019-03-05T13:12:36.074Z,22.11
2019-03-05T13:13:34.192Z,22.61
2019-03-05T13:14:34.214Z,22.83
2019-03-05T13:15:34.183Z,22.93
2019-03-05T13:16:35.201Z,23.38
2019-03-05T13:17:34.273Z,23.22
2019-03-05T13:18:34.216Z,22.37
2019-03-05T13:19:34.251Z,23.13
2019-03-05T13:20:34.228Z,22.39
2019-03-05T13:21:34.225Z,22.64
2019-03-05T13:22:34.250Z,23.22
2019-03-05T13:23:34.252Z,22.19
2019-03-05T13:24:34.280Z,22.41
2019-03-05T13:25:34.256Z,22.67
2019-03-05T13:26:34.278Z,22.11
2019-03-05T13:27:34.300Z,22.25
2019-03-05T13:28:36.774Z,22.80
2019-03-05T13:29:34.316Z,23.10
2019-03-05T13:30:34.335Z,21.40
2019-03-05T13:31:34.300Z,21.49
2019-03-05T13:32:34.323Z,20.79
2019-03-05T13:33:37.634Z,20.76
2019-03-05T13:34:34.333Z,20.48
2019-03-05T13:35:34.366Z,21.42
2019-03-05T13:36:34.389Z,20.39
2019-03-05T13:37:34.356Z,21.15
2019-03-05T13:38:34.352Z,20.74
2019-03-05T13:39:34.177Z,20.47
2019-03-05T13:40:38.070Z,20.80
2019-03-05T13:41:34.244Z,20.59
2019-03-05T13:42:34.933Z,22.01
2019-03-05T13:43:34.214Z,22.50
2019-03-05T13:44:34.277Z,22.20
2019-03-05T13:45:34.215Z,22.25
2019-03-05T13:46:34.276Z,23.36
2019-03-05T13:47:37.155Z,23.33
2019-03-05T13:48:34.268Z,23.83
2019-03-05T13:49:40.642Z,22.32
2019-03-05T13:50:34.247Z,22.49
2019-03-05T13:51:34.272Z,21.00
2019-03-05T13:52:36.067Z,20.34
2019-03-05T13:53:34.281Z,21.37
2019-03-05T13:54:36.676Z,21.03
2019-03-05T13:55:34.291Z,20.66
2019-03-05T13:56:37.664Z,21.05
2019-03-05T13:57:34.316Z,20.69
2019-03-05T13:58:34.325Z,20.98
2019-03-05T13:59:34.338Z,21.05
2019-03-05T14:00:34.350Z,21.80
2019-03-05T14:01:34.351Z,21.30
2019-03-05T14:02:34.339Z,21.88
2019-03-05T14:03:34.324Z,22.13
2019-03-05T14:04:34.369Z,22.01
2019-03-05T14:05:34.364Z,22.49
2019-03-05T14:06:34.423Z,21.09
2019-03-05T14:07:34.397Z,20.78
2019-03-05T14:08:34.378Z,21.11
2019-03-05T14:09:34.408Z,20.99
2019-03-05T14:10:34.426Z,20.70
2019-03-05T14:11:34.471Z,20.06
2019-03-05T14:12:34.222Z,20.43
2019-03-05T14:13:34.255Z,20.51
2019-03-05T14:14:34.265Z,21.02
2019-03-05T14:15:34.246Z,21.23
2019-03-05T14:16:34.275Z,20.73
2019-03-05T14:17:34.306Z,21.46
2019-03-05T14:18:34.268Z,20.75
2019-03-05T14:19:34.289Z,20.45
2019-03-05T14:20:35.229Z,20.50
2019-03-05T14:21:34.322Z,21.06
2019-03-05T14:22:34.293Z,20.20
2019-03-05T14:23:34.288Z,20.77
2019-03-05T14:24:34.489Z,20.48
2019-03-05T14:25:34.343Z,20.19
2019-03-05T14:26:34.359Z,21.82
2019-03-05T14:27:34.322Z,21.24
2019-03-05T14:28:34.304Z,21.05
2019-03-05T14:29:34.373Z,20.79
2019-03-05T14:30:34.375Z,21.70
2019-03-05T14:31:34.350Z,22.80
2019-03-05T14:32:34.358Z,22.92
2019-03-05T14:33:34.350Z,23.93
2019-03-05T14:34:34.398Z,24.39
2019-03-05T14:35:34.442Z,23.47
2019-03-05T14:36:34.409Z,23.67
2019-03-05T14:37:34.421Z,23.01
2019-03-05T14:38:34.394Z,23.54
2019-03-05T14:39:34.427Z,23.72
2019-03-05T14:40:34.420Z,23.37
2019-03-05T14:41:34.430Z,24.25
2019-03-05T14:42:34.472Z,23.97
2019-03-05T14:43:34.439Z,25.01
2019-03-05T14:44:39.799Z,24.72
2019-03-05T14:45:34.278Z,24.38
2019-03-05T14:46:34.478Z,24.70
2019-03-05T14:47:34.295Z,25.29
2019-03-05T14:48:34.293Z,25.32
2019-03-05T14:49:34.292Z,25.09
2019-03-05T14:50:34.290Z,25.75
2019-03-05T14:51:34.309Z,25.58
2019-03-05T14:52:34.312Z,25.79
2019-03-05T14:53:34.348Z,25.90
2019-03-05T14:54:34.302Z,25.73
2019-03-05T14:55:34.328Z,25.69
2019-03-05T14:56:34.359Z,26.47
2019-03-05T14:57:34.356Z,25.76
2019-03-05T14:58:34.365Z,25.86
2019-03-05T14:59:34.404Z,26.91
2019-03-05T15:00:34.424Z,26.70
2019-03-05T15:01:34.386Z,26.46
2019-03-05T15:02:34.385Z,26.29
2019-03-05T15:03:34.402Z,27.19
2019-03-05T15:04:34.434Z,26.49
2019-03-05T15:05:34.419Z,26.58
2019-03-05T15:06:34.403Z,26.21
2019-03-05T15:07:34.439Z,27.36
2019-03-05T15:08:34.421Z,27.44
2019-03-05T15:09:34.453Z,27.31
2019-03-05T15:10:34.481Z,27.56
2019-03-05T15:11:34.454Z,27.05
2019-03-05T15:12:34.490Z,27.38
2019-03-05T15:13:34.451Z,27.72
2019-03-05T15:14:34.462Z,26.71
2019-03-05T15:15:34.471Z,27.41
2019-03-05T15:16:34.484Z,27.23
2019-03-05T15:17:34.321Z,26.14
2019-03-05T15:18:34.361Z,27.25
2019-03-05T15:19:34.756Z,26.55
2019-03-05T15:20:34.358Z,27.82
2019-03-05T15:21:34.349Z,27.47
2019-03-05T15:22:34.349Z,28.35
2019-03-05T15:23:34.357Z,28.82
2019-03-05T15:24:34.359Z,29.10
2019-03-05T15:25:34.355Z,29.21
2019-03-05T15:26:34.404Z,28.65
2019-03-05T15:27:34.379Z,28.76
2019-03-05T15:28:34.430Z,29.91
2019-03-05T15:29:34.397Z,30.46
2019-03-05T15:30:34.398Z,31.93
2019-03-05T15:31:34.436Z,32.94
2019-03-05T15:32:34.420Z,33.82
2019-03-05T15:33:34.448Z,32.36
2019-03-05T15:34:34.417Z,31.63
2019-03-05T15:35:34.451Z,31.55
2019-03-05T15:36:34.443Z,35.12
2019-03-05T15:37:34.471Z,33.91
2019-03-05T15:38:34.486Z,34.38
2019-03-05T15:39:34.438Z,37.73
2019-03-05T15:40:34.471Z,35.70
2019-03-05T15:41:34.470Z,36.24
2019-03-05T15:42:34.495Z,36.64
2019-03-05T15:43:34.500Z,35.86
2019-03-05T15:44:34.640Z,35.67
2019-03-05T15:45:34.533Z,35.07
2019-03-05T15:46:34.486Z,35.38
2019-03-05T15:47:34.529Z,36.20
2019-03-05T15:48:34.307Z,33.83
2019-03-05T15:49:34.322Z,36.24
2019-03-05T15:50:34.321Z,36.03
2019-03-05T15:51:34.327Z,34.25
2019-03-05T15:52:34.351Z,34.73
2019-03-05T15:53:34.397Z,35.96
2019-03-05T15:54:34.379Z,37.42
2019-03-05T15:55:34.384Z,36.45
2019-03-05T15:56:34.351Z,37.80
2019-03-05T15:57:34.357Z,37.38
2019-03-05T15:58:36.442Z,39.36
2019-03-05T15:59:34.495Z,38.77
2019-03-05T16:00:34.379Z,38.73
2019-03-05T16:01:34.414Z,34.17
2019-03-05T16:02:34.405Z,34.21
2019-03-05T16:03:34.647Z,34.25
2019-03-05T16:04:35.985Z,35.09
2019-03-05T16:05:34.430Z,34.91
2019-03-05T16:06:35.268Z,35.09
2019-03-05T16:07:34.450Z,35.87
2019-03-05T16:08:34.443Z,37.16
2019-03-05T16:09:35.013Z,37.44
2019-03-05T16:10:34.468Z,37.10
2019-03-05T16:11:35.187Z,35.34
2019-03-05T16:12:34.495Z,36.36
2019-03-05T16:13:34.477Z,37.56
2019-03-05T16:14:34.485Z,36.51
2019-03-05T16:15:34.503Z,37.15
2019-03-05T16:16:34.530Z,37.53
2019-03-05T16:17:34.527Z,38.10
2019-03-05T16:18:34.554Z,38.11
2019-03-05T16:19:34.293Z,35.90
2019-03-05T16:20:34.320Z,33.98
2019-03-05T16:21:37.228Z,34.34
2019-03-05T16:22:34.350Z,33.26
2019-03-05T16:23:34.563Z,33.25
2019-03-05T16:24:37.517Z,34.97
2019-03-05T16:25:34.369Z,35.96
2019-03-05T16:26:34.370Z,37.37
2019-03-05T16:27:34.360Z,38.86
2019-03-05T16:28:34.389Z,37.77
2019-03-05T16:29:34.411Z,39.32
2019-03-05T16:30:35.319Z,40.72
2019-03-05T16:31:34.416Z,40.49
2019-03-05T16:32:34.431Z,40.19
2019-03-05T16:33:36.938Z,40.75
2019-03-05T16:34:34.434Z,40.84
2019-03-05T16:35:34.460Z,40.92
2019-03-05T16:36:35.091Z,42.19
2019-03-05T16:37:34.484Z,43.39
2019-03-05T16:38:34.460Z,43.74
2019-03-05T16:39:34.477Z,43.84
2019-03-05T16:40:34.485Z,44.14
2019-03-05T16:41:34.503Z,44.14
2019-03-05T16:42:34.632Z,45.22
2019-03-05T16:43:34.503Z,44.24
2019-03-05T16:44:35.988Z,44.32
2019-03-05T16:45:34.537Z,43.26
2019-03-05T16:46:34.534Z,43.34
2019-03-05T16:47:34.533Z,44.74
2019-03-05T16:48:34.550Z,45.15
2019-03-05T16:49:34.572Z,47.00
2019-03-05T16:50:34.554Z,45.91
2019-03-05T16:51:34.375Z,45.96
2019-03-05T16:52:34.386Z,47.04
2019-03-05T16:53:34.375Z,46.54
2019-03-05T16:54:34.414Z,46.36
2019-03-05T16:55:34.360Z,49.04
2019-03-05T16:56:34.389Z,47.63
2019-03-05T16:57:34.380Z,47.15
2019-03-05T16:58:34.436Z,47.26
2019-03-05T16:59:34.406Z,47.45
2019-03-05T17:00:34.451Z,48.35
2019-03-05T17:01:34.454Z,49.22
2019-03-05T17:02:34.428Z,49.77
2019-03-05T17:03:34.465Z,48.52
2019-03-05T17:04:34.471Z,49.36
2019-03-05T17:05:34.460Z,50.25
2019-03-05T17:06:34.681Z,49.92
2019-03-05T17:07:34.459Z,49.70
2019-03-05T17:08:34.483Z,49.71
2019-03-05T17:09:34.481Z,50.79
2019-03-05T17:10:34.502Z,50.79
2019-03-05T17:11:34.519Z,51.26
2019-03-05T17:12:34.540Z,50.36
2019-03-05T17:13:34.519Z,50.06
2019-03-05T17:14:34.526Z,47.34
2019-03-05T17:15:34.519Z,47.76
2019-03-05T17:16:35.030Z,50.30
2019-03-05T17:17:34.557Z,52.01
2019-03-05T17:18:34.578Z,52.02
2019-03-05T17:19:34.565Z,50.99
2019-03-05T17:20:34.574Z,50.17
2019-03-05T17:21:34.349Z,50.00
2019-03-05T17:22:34.604Z,51.36
2019-03-05T17:23:34.397Z,51.83
2019-03-05T17:24:34.653Z,51.59
2019-03-05T17:25:34.426Z,51.56
2019-03-05T17:26:34.402Z,52.42
2019-03-05T17:27:34.615Z,51.97
2019-03-05T17:28:34.419Z,52.55
2019-03-05T17:29:34.488Z,52.03
2019-03-05T17:30:34.457Z,53.03
2019-03-05T17:31:34.456Z,53.05
2019-03-05T17:32:34.470Z,53.26
2019-03-05T17:33:34.662Z,53.16
2019-03-05T17:34:34.485Z,51.99
2019-03-05T17:35:34.509Z,51.14
2019-03-05T17:36:34.499Z,50.53
2019-03-05T17:37:35.175Z,51.83
2019-03-05T17:38:34.487Z,51.85
2019-03-05T17:39:34.489Z,53.50
2019-03-05T17:40:34.547Z,53.43
2019-03-05T17:41:34.523Z,53.16
2019-03-05T17:42:34.511Z,53.46
2019-03-05T17:43:34.527Z,52.40
2019-03-05T17:44:34.924Z,53.80
2019-03-05T17:45:34.567Z,54.45
2019-03-05T17:46:34.574Z,54.18
2019-03-05T17:47:34.553Z,53.16
2019-03-05T17:48:34.561Z,53.52
2019-03-05T17:49:34.999Z,54.45
2019-03-05T17:50:34.594Z,54.70
2019-03-05T17:51:34.624Z,54.90
2019-03-05T17:52:34.411Z,55.02
2019-03-05T17:53:34.588Z,53.65
2019-03-05T17:54:34.407Z,53.97
2019-03-05T17:55:34.438Z,53.27
2019-03-05T17:56:34.440Z,54.66
2019-03-05T17:57:34.458Z,54.38
2019-03-05T17:58:34.440Z,54.55
2019-03-05T17:59:34.456Z,54.68
2019-03-05T18:00:34.466Z,55.86
2019-03-05T18:01:34.492Z,56.23
2019-03-05T18:02:34.465Z,55.54
2019-03-05T18:03:34.461Z,55.48
2019-03-05T18:04:34.501Z,54.73
2019-03-05T18:05:34.496Z,54.54
2019-03-05T18:06:34.481Z,53.87
2019-03-05T18:07:34.973Z,53.23
2019-03-05T18:08:34.511Z,53.13
2019-03-05T18:09:34.713Z,52.58
2019-03-05T18:10:34.547Z,53.21
2019-03-05T18:11:34.591Z,54.74
2019-03-05T18:12:34.541Z,56.43
2019-03-05T18:13:34.709Z,56.03
2019-03-05T18:14:34.570Z,56.09
2019-03-05T18:15:34.569Z,55.84
2019-03-05T18:16:36.316Z,56.08
2019-03-05T18:17:34.575Z,56.32
2019-03-05T18:18:34.567Z,56.56
2019-03-05T18:19:34.727Z,55.70
2019-03-05T18:20:34.588Z,57.50
2019-03-05T18:21:34.609Z,58.16
2019-03-05T18:22:34.627Z,58.23
2019-03-05T18:23:34.636Z,57.87
2019-03-05T18:24:34.669Z,57.75
2019-03-05T18:25:34.458Z,57.22
2019-03-05T18:26:34.441Z,56.75
2019-03-05T18:27:34.444Z,57.02
2019-03-05T18:28:34.465Z,57.29
2019-03-05T18:29:34.460Z,57.60
2019-03-05T18:30:34.462Z,58.62
2019-03-05T18:31:34.486Z,58.60
2019-03-05T18:32:34.499Z,58.86
2019-03-05T18:33:34.508Z,58.25
2019-03-05T18:34:34.517Z,57.81
2019-03-05T18:35:34.521Z,57.49
2019-03-05T18:36:34.556Z,57.65
2019-03-05T18:37:34.538Z,58.54
2019-03-05T18:38:34.539Z,59.57
2019-03-05T18:39:34.541Z,58.86
2019-03-05T18:40:34.548Z,58.65
2019-03-05T18:41:34.563Z,58.10
2019-03-05T18:42:34.536Z,58.30
2019-03-05T18:43:34.585Z,58.85
2019-03-05T18:44:34.560Z,59.10
2019-03-05T18:45:34.589Z,59.67
2019-03-05T18:46:34.600Z,59.13
2019-03-05T18:47:34.598Z,59.29
2019-03-05T18:48:34.594Z,59.74
2019-03-05T18:49:34.605Z,59.43
2019-03-05T18:50:34.618Z,58.91
2019-03-05T18:51:34.645Z,59.45
2019-03-05T18:52:34.645Z,60.02
2019-03-05T18:53:34.628Z,60.49
2019-03-05T18:54:34.431Z,60.70
2019-03-05T18:55:34.458Z,60.29
2019-03-05T18:56:34.450Z,59.41
2019-03-05T18:57:34.488Z,59.27
2019-03-05T18:58:34.550Z,59.04
2019-03-05T18:59:34.473Z,59.11
2019-03-05T19:00:34.496Z,59.39
2019-03-05T19:01:34.487Z,59.90
2019-03-05T19:02:34.517Z,60.10
2019-03-05T19:03:34.508Z,59.92
2019-03-05T19:04:34.501Z,59.85
2019-03-05T19:05:34.521Z,60.65
2019-03-05T19:06:34.564Z,61.04
2019-03-05T19:07:34.536Z,60.87
2019-03-05T19:08:34.548Z,60.33
2019-03-05T19:09:34.545Z,60.43
2019-03-05T19:10:34.777Z,60.82
2019-03-05T19:11:34.555Z,60.63
2019-03-05T19:12:34.564Z,60.97
2019-03-05T19:13:34.597Z,60.44
2019-03-05T19:14:34.594Z,61.09
2019-03-05T19:15:34.615Z,61.02
2019-03-05T19:16:34.614Z,61.30
2019-03-05T19:17:34.603Z,61.04
2019-03-05T19:18:34.611Z,61.09
2019-03-05T19:19:34.602Z,60.46
2019-03-05T19:20:34.647Z,59.93
2019-03-05T19:21:34.660Z,60.45
2019-03-05T19:22:34.642Z,61.07
2019-03-05T19:23:34.656Z,60.85
2019-03-05T19:24:34.665Z,61.15
2019-03-05T19:25:34.468Z,61.51
2019-03-05T19:26:34.471Z,61.30
2019-03-05T19:27:34.475Z,61.51
2019-03-05T19:28:34.511Z,61.80
2019-03-05T19:29:34.492Z,61.72
2019-03-05T19:30:34.697Z,61.13
2019-03-05T19:31:34.536Z,61.46
2019-03-05T19:32:34.533Z,61.18
2019-03-05T19:33:34.520Z,61.40
2019-03-05T19:34:34.551Z,61.44
2019-03-05T19:35:34.548Z,61.10
2019-03-05T19:36:34.540Z,60.58
2019-03-05T19:37:34.537Z,60.20
2019-03-05T19:38:34.534Z,60.09
2019-03-05T19:39:34.785Z,60.02
2019-03-05T19:40:34.585Z,59.63
2019-03-05T19:41:34.579Z,59.73
2019-03-05T19:42:35.134Z,59.46
2019-03-05T19:43:34.599Z,59.37
2019-03-05T19:44:34.604Z,59.19
2019-03-05T19:45:34.595Z,59.15
2019-03-05T19:46:34.614Z,59.09